Bellingham, WA (98225)

12:52 AM PDT on September 02, 2015 (GMT -0700)
Columbia-Eldridge Marimba Palace | | Change Station
CLOSE
Current Station
Personal Weather Station
Location: Bellingham, WA
Elevation: 97 ft
Nearby Weather Stations

Elev 97 ft 48.76 °N, 122.50 °W | Updated 12 minutes ago

Rain
Rain
56.5 °F
Feels Like 56.5 °F
N
4.3
Wind Variable Wind from SW
Gusts 4.3 mph

Today
High -- | Low -- °F
--% Chance of Precip.
Yesterday
High -- | Low -- °F
Precip. -- in
6:28 AM 7:50 PM
Waning Gibbous, 82% visible
Pressure 29.77 in
Visibility 10.0 miles
Clouds
Dew Point 52 °F
Humidity 85%
Rainfall 0.00 in
Snow Depth Not available.
UV Not available.
Pollen .50 out of 12
Air Quality Not available.
Flu Activity Not available.
METAR KBLI 020653Z 15004KT 10SM -RA 14/11 A2975 RMK AO2 RAB07 SLP080 P0000 T01390111
Pressure 29.77 in
Visibility 10.0 miles
Clouds
Dew Point 52 °F
Humidity 85%
Rainfall 0.00 in
Snow Depth Not available.
UV Not available.
Pollen .50 out of 12
Air Quality Not available.
Flu Activity Not available.
METAR KBLI 020653Z 15004KT 10SM -RA 14/11 A2975 RMK AO2 RAB07 SLP080 P0000 T01390111

10-Day Weather Forecast

×

Almanac

Astronomy

Sep. 02, 2015 Rise Set
Actual Time
Civil Twilight
Nautical Twilight
Astronomical Twilight
Moon
Length of Visible Light
Length of Day
Tomorrow will be .
, % of the Moon is Illuminated

Today's Extremes

State Highs State Lows

Community

WunderPhotos

Upload Photos

1,851,723 photos uploaded!

WunderBlogs® & News

Nearby

Air Quality

  Air Quality AQ Index Pollutant
Not available.

Snow Depth

Station Depth Elevation

Earthquake Activity

City Distance Mag. Time & Date
Minimum magnitude displayed is 2.5.

Coastal Water Temperatures

Place Temperature

Stations

Nearby Weather Stations

Station Location Temp. Windchill Dew Point Humidity Wind Precip. Elev Updated Type